Time;durP1;ratioP1;P1;durP2;ratioP2;P2;SDS_P1;SDS_P2;PMS_P1;PMS_P2;Temp;Humidity;BMP_temperature;BMP_pressure;BME280_temperature;BME280_humidity;BME280_pressure;Samples;Min_cycle;Max_cycle;Signal;HPM_P1;HPM_P2
2022/12/17 14:18:54;;;;;;;34.73;22.50;;;;;;;10.83;59.69;100490.63;1728126;80;28199;-94
2022/12/17 14:21:27;;;;;;;35.13;21.37;;;;;;;9.01;57.83;100496.47;1642101;86;21025;-92
2022/12/17 14:23:59;;;;;;;35.15;21.30;;;;;;;7.00;56.54;100506.50;1638277;86;21142;-92
2022/12/17 14:26:26;;;;;;;31.00;19.60;;;;;;;5.07;56.36;100504.83;1659187;85;21029;-93
2022/12/17 14:28:57;;;;;;;45.88;26.70;;;;;;;3.78;56.37;100515.09;1649103;85;21101;-92
2022/12/17 14:31:30;;;;;;;39.05;22.80;;;;;;;2.63;56.06;100519.89;1659660;85;21260;-93
2022/12/17 14:34:06;;;;;;;33.25;20.60;;;;;;;1.81;56.14;100524.66;1655397;85;21068;-95
2022/12/17 14:36:40;;;;;;;32.87;19.80;;;;;;;1.05;55.82;100523.16;1658680;85;21128;-92
2022/12/17 14:39:30;;;;;;;35.38;19.80;;;;;;;0.30;55.61;100534.70;1653504;85;21129;-86
2022/12/17 14:45:07;;;;;;;33.92;17.77;;;;;;;-0.81;55.76;100554.16;1656811;85;21097;-87
2022/12/17 14:47:37;;;;;;;35.40;19.07;;;;;;;-1.20;55.94;100550.23;1609957;88;21124;-89
2022/12/17 14:50:18;;;;;;;30.90;17.25;;;;;;;-1.48;55.86;100551.97;1609372;87;21611;-93
2022/12/17 14:52:54;;;;;;;37.20;18.57;;;;;;;-1.74;55.84;100553.69;1610797;87;21515;-89
2022/12/17 14:55:56;;;;;;;33.63;18.70;;;;;;;-2.04;55.76;100563.88;1611412;88;22016;-93
2022/12/17 14:58:31;;;;;;;37.42;19.60;;;;;;;-2.30;55.91;100566.37;1613102;87;21158;-93
2022/12/17 15:01:11;;;;;;;41.42;21.42;;;;;;;-2.57;55.84;100575.27;1610952;88;21167;-91
2022/12/17 15:03:46;;;;;;;41.28;20.55;;;;;;;-2.71;56.06;100572.42;1609128;87;21044;-90
2022/12/17 15:06:18;;;;;;;36.70;19.85;;;;;;;-2.80;56.16;100580.31;1584867;87;21653;-94
2022/12/17 15:08:48;;;;;;;39.20;20.00;;;;;;;-2.96;56.20;100589.37;1610979;87;21018;-88
2022/12/17 15:11:21;;;;;;;43.65;21.00;;;;;;;-3.15;56.30;100592.78;1606683;87;21613;-92
2022/12/17 15:13:48;;;;;;;43.05;21.35;;;;;;;-3.22;56.37;100598.99;1606993;87;20992;-89
2022/12/17 15:16:15;;;;;;;49.15;23.65;;;;;;;-3.29;56.48;100586.93;1606785;87;21151;-90
2022/12/17 15:18:44;;;;;;;47.35;23.32;;;;;;;-3.33;56.60;100599.16;1595526;88;21587;-88
2022/12/17 15:21:11;;;;;;;47.05;23.15;;;;;;;-3.32;56.75;100598.36;1620672;87;21099;-94
2022/12/17 15:23:42;;;;;;;41.95;23.07;;;;;;;-3.38;56.66;100599.94;1653288;85;21065;-92
2022/12/17 15:26:11;;;;;;;47.05;23.87;;;;;;;-3.47;56.81;100604.84;1657538;83;21558;-89
2022/12/17 15:28:38;;;;;;;51.75;23.40;;;;;;;-3.48;56.99;100605.64;1660548;85;21049;-92
2022/12/17 15:31:04;;;;;;;57.83;26.20;;;;;;;-3.44;57.12;100602.35;1657668;85;21006;-92
2022/12/17 15:33:36;;;;;;;51.48;24.85;;;;;;;-3.48;57.17;100599.27;1641136;86;21165;-91
2022/12/17 15:36:08;;;;;;;45.92;22.90;;;;;;;-3.46;57.23;100604.00;1689714;83;21458;-88
2022/12/17 15:38:37;;;;;;;42.43;21.90;;;;;;;-3.54;57.42;100596.56;1689356;83;21014;-83
2022/12/17 15:43:58;;;;;;;38.13;20.80;;;;;;;-3.74;57.57;100602.47;1697175;83;21064;-83
2022/12/17 15:46:28;;;;;;;;;;;;;;;-3.69;57.77;100605.14;1662253;83;20959;-83
2022/12/17 15:49:00;;;;;;;43.20;21.57;;;;;;;-3.64;58.16;100611.20;1701462;83;20197;-83
2022/12/17 15:51:26;;;;;;;39.27;20.37;;;;;;;-3.66;57.93;100600.97;1696047;83;21114;-83
2022/12/17 15:53:56;;;;;;;40.83;22.32;;;;;;;-3.77;57.88;100609.20;1708515;83;21069;-83
2022/12/17 15:56:26;;;;;;;39.58;21.50;;;;;;;-3.80;57.97;100615.50;1698488;83;21110;-83
2022/12/17 15:58:58;;;;;;;39.75;19.77;;;;;;;-3.84;58.12;100614.16;1696956;85;21047;-85
2022/12/17 16:01:26;;;;;;;34.90;19.73;;;;;;;-3.80;58.22;100616.78;1690457;83;21065;-83
2022/12/17 16:03:53;;;;;;;39.98;19.80;;;;;;;-3.78;58.26;100615.11;1697812;83;20983;-86
2022/12/17 16:06:19;;;;;;;39.03;21.02;;;;;;;-3.78;58.33;100622.76;1696802;84;21145;-84
2022/12/17 16:08:46;;;;;;;46.47;22.63;;;;;;;-3.78;58.38;100628.75;1668289;85;21094;-83
2022/12/17 16:11:14;;;;;;;49.42;24.20;;;;;;;-3.80;58.43;100624.44;1636363;88;20958;-94
2022/12/17 16:13:42;;;;;;;52.60;27.15;;;;;;;-3.89;58.50;100636.13;1688919;83;21046;-84
2022/12/17 16:16:08;;;;;;;46.58;23.87;;;;;;;-3.98;58.64;100635.88;1691594;83;21022;-84
2022/12/17 16:18:37;;;;;;;52.43;26.05;;;;;;;-4.00;58.53;100640.09;1689048;83;21153;-89
2022/12/17 16:21:08;;;;;;;64.10;27.62;;;;;;;-4.06;58.87;100643.77;1664058;85;21035;-88
2022/12/17 16:23:37;;;;;;;47.43;23.87;;;;;;;-4.03;59.13;100642.56;1672993;85;21057;-84
2022/12/17 16:26:09;;;;;;;59.80;29.07;;;;;;;-3.99;59.12;100646.05;1676698;83;21095;-86
2022/12/17 16:28:45;;;;;;;66.72;30.57;;;;;;;-3.93;59.24;100654.72;1681955;83;21034;-95
2022/12/17 16:31:12;;;;;;;54.58;28.87;;;;;;;-3.84;59.38;100652.42;1679036;83;21033;-85
2022/12/17 16:33:46;;;;;;;55.12;27.70;;;;;;;-3.83;59.45;100654.14;1680579;83;21078;-93
2022/12/17 16:39:08;;;;;;;;;;;;;;;;;;;;;
2022/12/17 16:46:18;;;;;;;39.35;19.05;;;;;;;-3.83;59.92;100658.39;1664477;84;20102;-86
2022/12/17 16:48:45;;;;;;;32.63;18.12;;;;;;;-3.82;59.90;100666.06;1661038;84;21087;-83
2022/12/17 16:51:21;;;;;;;28.75;17.00;;;;;;;-3.83;59.92;100661.80;1646883;86;21060;-85
2022/12/17 16:53:47;;;;;;;33.35;19.23;;;;;;;-3.86;59.92;100666.83;1664252;84;21025;-85
2022/12/17 16:56:21;;;;;;;30.82;17.10;;;;;;;-3.91;60.00;100663.70;1647603;85;21117;-91
2022/12/17 16:58:50;;;;;;;37.05;19.85;;;;;;;-3.92;60.08;100664.13;1666736;84;21018;-94
2022/12/17 17:01:21;;;;;;;46.25;24.30;;;;;;;-3.95;60.05;100666.59;1617800;87;21066;-83
2022/12/17 17:03:48;;;;;;;47.17;24.92;;;;;;;-4.04;60.06;100668.88;1634371;85;21078;-82
2022/12/17 17:06:19;;;;;;;45.03;22.48;;;;;;;-4.14;60.16;100677.13;1646282;86;21176;-91
2022/12/17 17:08:54;;;;;;;41.28;23.42;;;;;;;-4.27;60.11;100679.31;1650763;85;21137;-86
2022/12/17 17:11:30;;;;;;;39.78;20.30;;;;;;;-4.40;60.16;100677.23;1667182;84;21008;-88
2022/12/17 17:13:58;;;;;;;38.75;21.73;;;;;;;-4.53;60.24;100685.38;1662567;84;21020;-88
2022/12/17 17:16:26;;;;;;;39.83;22.00;;;;;;;-4.67;60.29;100676.46;1659674;84;21103;-87
2022/12/17 17:18:55;;;;;;;39.63;22.30;;;;;;;-4.88;60.27;100684.30;1660897;85;21059;-89
2022/12/17 17:21:40;;;;;;;37.65;22.07;;;;;;;-5.03;60.40;100685.56;1655569;86;22635;-87
2022/12/17 17:24:22;;;;;;;42.30;23.22;;;;;;;-5.14;60.59;100683.51;1608662;88;22407;-87
2022/12/17 17:26:53;;;;;;;48.50;26.73;;;;;;;-5.19;60.74;100684.21;1607950;88;21084;-91
2022/12/17 17:29:25;;;;;;;54.13;33.05;;;;;;;-5.20;60.90;100688.86;1607047;88;21142;-90
2022/12/17 17:32:00;;;;;;;39.40;23.20;;;;;;;-5.24;60.90;100694.69;1572414;89;21642;-89
2022/12/17 17:34:25;;;;;;;38.50;21.87;;;;;;;-5.23;61.24;100693.86;1636361;86;21709;-92
2022/12/17 17:36:52;;;;;;;43.87;23.02;;;;;;;-5.22;61.32;100694.30;1636499;86;21832;-88
2022/12/17 17:39:19;;;;;;;50.03;26.02;;;;;;;-5.17;61.35;100694.05;1635930;86;21648;-89
2022/12/17 17:41:45;;;;;;;51.10;27.87;;;;;;;-5.18;61.38;100703.78;1633280;86;21055;-88
2022/12/17 17:44:13;;;;;;;52.77;30.40;;;;;;;-5.22;61.48;100691.75;1629710;86;21107;-89
2022/12/17 17:46:41;;;;;;;54.03;28.10;;;;;;;-5.13;61.68;100695.41;1633740;86;21035;-91
2022/12/17 17:49:09;;;;;;;44.77;24.52;;;;;;;-5.09;61.53;100702.35;1632803;86;21542;-88
2022/12/17 17:51:41;;;;;;;52.27;29.72;;;;;;;-5.14;60.63;100706.42;1605437;88;21132;-84
2022/12/17 17:54:09;;;;;;;58.80;32.42;;;;;;;-5.30;60.83;100711.01;1588911;89;21097;-87
2022/12/17 17:56:39;;;;;;;60.73;33.25;;;;;;;-5.36;61.77;100719.72;1602051;88;21039;-87
2022/12/17 17:59:13;;;;;;;72.45;39.63;;;;;;;-5.37;61.89;100721.83;1635667;86;21576;-90
2022/12/17 18:02:07;;;;;;;65.65;34.75;;;;;;;-5.40;62.03;100720.04;1631586;86;21148;-91
2022/12/17 18:04:31;;;;;;;52.30;28.00;;;;;;;-5.32;62.30;100721.95;1554888;91;21061;-90
2022/12/17 18:06:58;;;;;;;55.10;29.95;;;;;;;-5.23;62.17;100723.14;1565086;90;21596;-88
2022/12/17 18:09:26;;;;;;;65.17;33.55;;;;;;;-5.31;62.10;100724.56;1523237;92;21918;-84
2022/12/17 18:13:53;;;;;;;61.33;33.83;;;;;;;-5.35;62.34;100727.80;1527219;92;21039;-86
2022/12/17 18:14:29;;;;;;;57.17;31.55;;;;;;;-5.35;62.44;100735.44;1524776;93;21087;-86
2022/12/17 18:16:57;;;;;;;64.75;35.75;;;;;;;-5.40;62.36;100740.81;1526883;93;21063;-83
2022/12/17 18:19:30;;;;;;;64.45;33.73;;;;;;;-5.45;62.55;100743.61;1522455;90;21140;-85
2022/12/17 18:21:57;;;;;;;72.87;34.92;;;;;;;-5.55;62.55;100739.01;1533869;92;21551;-87
2022/12/17 18:24:25;;;;;;;74.95;37.35;;;;;;;-5.67;62.56;100747.95;1569931;90;21169;-93
2022/12/17 18:26:52;;;;;;;83.42;39.88;;;;;;;-5.71;62.69;100751.22;1562725;91;21626;-88
2022/12/17 18:29:25;;;;;;;74.47;38.67;;;;;;;-5.72;62.85;100752.02;1569489;91;21075;-85
2022/12/17 18:31:52;;;;;;;76.05;36.77;;;;;;;-5.76;62.86;100755.27;1547048;92;21117;-89
2022/12/17 18:34:26;;;;;;;87.60;42.98;;;;;;;-5.83;62.76;100755.86;1552563;92;21117;-92
2022/12/17 18:36:53;;;;;;;80.50;43.52;;;;;;;-5.94;62.78;100757.19;1569083;91;21180;-89
2022/12/17 18:39:31;;;;;;;85.32;41.18;;;;;;;-6.02;62.97;100758.58;1568360;90;21573;-88
2022/12/17 18:44:41;;;;;;;81.67;40.78;;;;;;;-6.09;63.11;100768.53;1648678;85;21576;-85
2022/12/17 18:47:10;;;;;;;84.47;42.08;;;;;;;-6.11;62.96;100780.32;1615387;87;21079;-86
2022/12/17 18:49:37;;;;;;;73.65;37.75;;;;;;;-6.20;63.10;100777.86;1583656;89;21182;-89
2022/12/17 18:52:05;;;;;;;82.33;42.58;;;;;;;-6.25;63.16;100781.48;1641028;86;21180;-86
2022/12/17 18:54:44;;;;;;;74.27;41.02;;;;;;;-6.28;63.42;100787.73;1639523;86;21155;-87
2022/12/17 18:57:10;;;;;;;75.62;39.58;;;;;;;-6.31;63.45;100784.66;1627582;86;21092;-86
2022/12/17 18:59:40;;;;;;;96.80;48.87;;;;;;;-6.35;63.55;100792.14;1638179;86;21407;-84
2022/12/17 19:02:12;;;;;;;79.37;39.25;;;;;;;-6.42;63.68;100787.61;1640154;86;21148;-85
2022/12/17 19:07:49;;;;;;;91.78;48.65;;;;;;;-6.60;63.68;100796.27;1532527;92;21187;-85
2022/12/17 19:10:15;;;;;;;96.10;49.10;;;;;;;-6.64;63.83;100798.20;1504500;93;21203;-84
2022/12/17 19:12:42;;;;;;;99.03;52.48;;;;;;;-6.69;63.76;100806.08;1505489;93;21175;-85
2022/12/17 19:19:37;;;;;;;;;;;;;;;;;;;;;
2022/12/17 19:22:46;;;;;;;103.58;49.98;;;;;;;-6.67;64.17;100801.90;1323094;106;21247;-84
2022/12/17 19:25:58;;;;;;;98.85;48.95;;;;;;;-6.62;64.29;100807.17;1326307;105;21222;-85
2022/12/17 19:28:25;;;;;;;99.42;49.48;;;;;;;-6.63;64.27;100794.88;1316978;105;21263;-85
2022/12/17 19:30:58;;;;;;;105.07;52.50;;;;;;;-6.76;63.75;100796.47;1324752;105;21209;-84
2022/12/17 19:33:28;;;;;;;103.15;54.10;;;;;;;-6.86;63.87;100798.16;1322446;107;21279;-85
2022/12/17 19:36:07;;;;;;;92.47;43.42;;;;;;;-6.89;64.10;100800.58;1329307;105;21293;-84
2022/12/17 19:38:34;;;;;;;108.10;51.53;;;;;;;-6.93;64.21;100802.55;1325733;105;21241;-84
2022/12/17 19:44:02;;;;;;;91.47;46.13;;;;;;;-7.08;64.42;100803.66;1316082;105;21736;-85
2022/12/17 19:46:31;;;;;;;102.53;52.15;;;;;;;-7.15;64.29;100806.73;1349340;104;21329;-84
2022/12/17 19:49:00;;;;;;;99.95;51.50;;;;;;;-7.18;64.77;100811.69;1378339;101;21229;-85
2022/12/17 19:51:30;;;;;;;97.60;47.55;;;;;;;-7.18;64.87;100811.69;1393754;101;21599;-84
2022/12/17 19:53:59;;;;;;;97.12;50.17;;;;;;;-7.28;64.66;100805.38;1392208;101;21117;-85
2022/12/17 19:56:32;;;;;;;90.45;46.92;;;;;;;-7.38;64.68;100812.53;1400638;101;21143;-84
2022/12/17 19:59:03;;;;;;;98.05;51.02;;;;;;;-7.49;64.71;100807.86;1411251;100;21101;-84
2022/12/17 20:02:02;;;;;;;94.92;49.88;;;;;;;-7.58;64.68;100816.35;1410183;100;21681;-85
2022/12/17 20:46:37;;;;;;;;;;;;;;;;;;;;;
2022/12/17 20:50:12;;;;;;;109.42;50.80;;;;;;;-8.68;65.71;100865.80;1296316;107;21200;-84
2022/12/17 20:52:40;;;;;;;83.58;44.33;;;;;;;-8.64;65.83;100872.77;1321296;103;21169;-84
2022/12/17 20:55:22;;;;;;;71.80;37.70;;;;;;;-8.36;66.08;100874.52;1379671;100;21140;-84
2022/12/17 20:58:21;;;;;;;64.40;35.15;;;;;;;-8.16;65.86;100873.31;1411221;100;21663;-84
2022/12/17 21:00:48;;;;;;;79.58;37.85;;;;;;;-8.00;65.93;100870.70;1403491;100;21110;-84
2022/12/17 21:03:17;;;;;;;76.53;38.97;;;;;;;-7.99;66.35;100864.81;1408465;100;21601;-84
2022/12/17 21:05:44;;;;;;;93.78;45.33;;;;;;;-8.08;66.15;100861.88;1408338;100;21137;-84
2022/12/17 21:08:10;;;;;;;83.42;40.95;;;;;;;-8.17;66.23;100874.98;1418212;98;21744;-84
2022/12/17 21:10:37;;;;;;;70.90;37.67;;;;;;;-8.21;66.06;100870.96;1453085;97;21162;-83
2022/12/17 21:14:06;;;;;;;82.40;42.30;;;;;;;-8.36;65.85;100873.25;1472837;96;21121;-84
2022/12/17 21:15:51;;;;;;;79.30;42.23;;;;;;;-8.47;65.87;100869.78;1475321;96;21643;-84
2022/12/17 21:18:21;;;;;;;79.97;41.68;;;;;;;-8.51;66.30;100877.64;1481234;94;21173;-84
2022/12/17 21:21:13;;;;;;;;;;;;;;;;;;;;;
2022/12/17 21:23:41;;;;;;;66.25;35.92;;;;;;;-8.44;66.82;100879.65;1483548;94;21732;-85
2022/12/17 21:26:17;;;;;;;84.17;45.38;;;;;;;-8.42;66.78;100882.27;1499155;94;21145;-85
2022/12/17 21:28:52;;;;;;;82.82;41.53;;;;;;;-8.42;66.86;100883.13;1484463;94;21130;-85
2022/12/17 21:31:31;;;;;;;83.25;42.10;;;;;;;-8.42;66.76;100889.47;1480067;96;21107;-84
2022/12/17 21:34:06;;;;;;;85.20;43.05;;;;;;;-8.46;66.70;100891.36;1498041;94;21759;-84
2022/12/17 21:36:34;;;;;;;68.90;37.58;;;;;;;-8.55;66.48;100889.66;1494195;94;21155;-84
2022/12/17 21:39:04;;;;;;;69.27;38.42;;;;;;;-8.60;66.54;100898.70;1489606;93;21123;-84
2022/12/17 21:41:36;;;;;;;67.05;35.65;;;;;;;-8.56;66.80;100896.80;1547545;90;21648;-83
2022/12/17 21:44:09;;;;;;;81.57;39.65;;;;;;;-8.46;67.19;100891.36;1560443;90;21126;-84
2022/12/17 21:46:39;;;;;;;82.17;39.00;;;;;;;-8.45;67.16;100890.59;1621676;85;21075;-84
2022/12/17 21:49:13;;;;;;;74.35;39.50;;;;;;;-8.52;66.99;100878.41;1669308;84;21044;-84
2022/12/17 21:51:36;;;;;;;76.37;39.88;;;;;;;-8.62;66.75;100883.85;1621647;86;21609;-83
2022/12/17 21:54:05;;;;;;;72.23;36.17;;;;;;;-8.68;66.68;100893.66;1609207;87;21017;-84
2022/12/17 21:56:31;;;;;;;71.45;35.70;;;;;;;-8.72;66.77;100891.78;1607977;87;21047;-83
2022/12/17 21:59:00;;;;;;;64.40;35.10;;;;;;;-8.83;66.80;100892.52;1636236;86;21081;-83
2022/12/17 22:01:31;;;;;;;71.10;33.63;;;;;;;-8.92;66.91;100891.67;1671746;84;21010;-85
2022/12/17 22:04:00;;;;;;;68.87;34.43;;;;;;;-8.92;67.19;100892.94;1668120;84;21087;-84
2022/12/17 22:06:29;;;;;;;70.20;37.53;;;;;;;-8.93;67.03;100893.73;1672358;84;21070;-83
2022/12/17 22:08:59;;;;;;;74.22;37.98;;;;;;;-8.95;67.13;100894.05;1667050;85;21074;-84
2022/12/17 22:11:27;;;;;;;73.02;38.35;;;;;;;-8.96;67.23;100892.33;1667023;85;21206;-84
2022/12/17 22:14:11;;;;;;;69.17;35.45;;;;;;;-8.92;67.41;100901.80;1642302;85;21192;-84
2022/12/17 22:16:45;;;;;;;73.28;38.45;;;;;;;-8.91;67.27;100890.00;1663250;84;21051;-84
2022/12/17 22:19:16;;;;;;;71.97;35.38;;;;;;;-8.97;66.96;100901.95;1652380;84;21085;-84
2022/12/17 22:21:45;;;;;;;74.97;39.30;;;;;;;-9.03;67.11;100907.98;1621295;85;21055;-83
2022/12/17 22:24:17;;;;;;;78.67;38.58;;;;;;;-9.09;67.13;100911.47;1620118;88;21138;-83
2022/12/17 22:26:44;;;;;;;72.42;39.78;;;;;;;-9.07;67.32;100918.75;1653944;84;21116;-84
2022/12/17 22:29:11;;;;;;;;;;;;;;;-8.97;67.60;100916.27;1650713;85;21085;-84
2022/12/17 22:34:22;;;;;;;57.95;28.98;;;;;;;-8.64;68.01;100910.75;1645630;85;21124;-84
2022/12/17 22:36:49;;;;;;;67.33;36.33;;;;;;;-8.47;67.75;100914.97;1641629;85;21072;-84
2022/12/17 22:39:16;;;;;;;59.47;31.50;;;;;;;-8.42;67.82;100913.53;1634464;85;21144;-84
2022/12/17 22:44:27;;;;;;;68.78;33.80;;;;;;;-8.13;68.14;100915.27;1615796;87;21092;-84
2022/12/17 22:46:54;;;;;;;76.63;40.53;;;;;;;-7.94;68.18;100922.94;1632357;86;21109;-84
2022/12/17 22:51:56;;;;;;;83.55;42.13;;;;;;;-7.85;68.36;100930.50;1542809;89;21248;-85
2022/12/17 22:54:38;;;;;;;72.87;40.52;;;;;;;-7.69;68.45;100932.94;1438984;98;21156;-84
2022/12/17 22:57:10;;;;;;;67.15;35.35;;;;;;;-7.60;68.37;100933.35;1424688;98;21181;-84
2022/12/17 22:59:46;;;;;;;85.10;40.00;;;;;;;-7.53;68.63;100934.11;1403488;100;21118;-84
2022/12/17 23:02:19;;;;;;;72.80;37.80;;;;;;;-7.37;68.84;100934.78;1422474;98;21221;-84
2022/12/17 23:05:16;;;;;;;;;;;;;;;;;;;;;
2022/12/17 23:07:38;;;;;;;75.15;34.18;;;;;;;-7.11;69.36;100945.69;1334623;104;21228;-84
2022/12/17 23:10:06;;;;;;;66.05;31.17;;;;;;;-6.90;69.46;100948.67;1340396;105;21724;-85
2022/12/17 23:12:51;;;;;;;;;;;;;;;-6.76;69.69;100951.39;1339924;105;21148;-84
2022/12/17 23:15:31;;;;;;;64.55;27.95;;;;;;;-6.68;69.75;100949.19;1343366;105;20203;-84
2022/12/17 23:18:01;;;;;;;56.02;23.98;;;;;;;-6.54;69.86;100955.30;1348832;105;21603;-85
2022/12/17 23:20:34;;;;;;;44.05;22.37;;;;;;;-6.39;69.89;100955.45;1344570;105;21121;-85
2022/12/17 23:23:04;;;;;;;55.50;27.75;;;;;;;-6.31;69.99;100956.64;1343482;105;21194;-84
2022/12/17 23:25:31;;;;;;;48.55;23.42;;;;;;;-6.25;70.03;100954.34;1329889;105;21213;-85
2022/12/17 23:28:00;;;;;;;38.78;20.15;;;;;;;-6.10;70.28;100953.70;1329209;106;21139;-85
2022/12/17 23:30:37;;;;;;;;;;;;;;;;;;;;;
2022/12/17 23:33:11;;;;;;;;;;;;;;;;;;;;;
2022/12/17 23:35:41;;;;;;;;;;;;;;;;;;;;;
2022/12/17 23:38:13;;;;;;;;;;;;;;;;;;;;;
2022/12/17 23:40:33;;;;;;;53.75;24.82;;;;;;;-5.51;70.68;100963.13;1343669;102;21276;-84
2022/12/17 23:43:00;;;;;;;53.25;25.48;;;;;;;-5.34;70.84;100966.30;1366023;103;21106;-84
2022/12/17 23:45:27;;;;;;;48.37;22.87;;;;;;;-5.22;70.85;100969.28;1391269;101;21696;-85
2022/12/17 23:47:56;;;;;;;44.48;22.42;;;;;;;-5.07;70.89;100968.10;1404680;99;21698;-84
2022/12/17 23:50:22;;;;;;;43.90;23.18;;;;;;;-5.00;70.80;100980.26;1413962;100;21225;-84
2022/12/17 23:52:49;;;;;;;41.58;20.30;;;;;;;-4.89;70.99;100973.86;1472976;96;21193;-84
2022/12/17 23:55:21;;;;;;;37.70;18.63;;;;;;;-4.83;70.86;100976.62;1515277;90;21626;-85
2022/12/17 23:58:26;;;;;;;;;;;;;;;;;;;;;
